sensor_id;sensor_type;location;lat;lon;timestamp;P1;durP1;ratioP1;P2;durP2;ratioP2
26335;SDS011;14047;50.936;4.654;2022-08-23T00:00:45;12.18;;;5.97;;
26335;SDS011;14047;50.936;4.654;2022-08-23T00:03:11;14.43;;;6.45;;
26335;SDS011;14047;50.936;4.654;2022-08-23T00:05:37;15.98;;;6.50;;
26335;SDS011;14047;50.936;4.654;2022-08-23T00:08:03;13.55;;;6.50;;
26335;SDS011;14047;50.936;4.654;2022-08-23T00:10:29;18.45;;;6.45;;
26335;SDS011;14047;50.936;4.654;2022-08-23T00:12:54;15.48;;;6.85;;
26335;SDS011;14047;50.936;4.654;2022-08-23T00:15:20;19.55;;;7.30;;
26335;SDS011;14047;50.936;4.654;2022-08-23T00:17:46;11.68;;;6.00;;
26335;SDS011;14047;50.936;4.654;2022-08-23T00:20:13;12.65;;;5.30;;
26335;SDS011;14047;50.936;4.654;2022-08-23T00:22:41;10.15;;;6.05;;
26335;SDS011;14047;50.936;4.654;2022-08-23T00:25:08;12.48;;;5.68;;
26335;SDS011;14047;50.936;4.654;2022-08-23T00:27:35;14.18;;;5.05;;
26335;SDS011;14047;50.936;4.654;2022-08-23T00:30:03;11.73;;;5.45;;
26335;SDS011;14047;50.936;4.654;2022-08-23T00:32:31;13.75;;;6.05;;
26335;SDS011;14047;50.936;4.654;2022-08-23T00:34:59;10.60;;;6.55;;
26335;SDS011;14047;50.936;4.654;2022-08-23T00:37:26;8.75;;;5.78;;
26335;SDS011;14047;50.936;4.654;2022-08-23T00:39:53;13.40;;;6.60;;
26335;SDS011;14047;50.936;4.654;2022-08-23T00:45:27;9.88;;;6.07;;
26335;SDS011;14047;50.936;4.654;2022-08-23T00:48:13;10.15;;;6.13;;
26335;SDS011;14047;50.936;4.654;2022-08-23T00:50:43;14.63;;;6.38;;
26335;SDS011;14047;50.936;4.654;2022-08-23T00:53:22;19.33;;;7.25;;
26335;SDS011;14047;50.936;4.654;2022-08-23T00:55:52;13.25;;;7.82;;
26335;SDS011;14047;50.936;4.654;2022-08-23T00:58:22;19.23;;;8.98;;
26335;SDS011;14047;50.936;4.654;2022-08-23T01:00:48;22.77;;;10.18;;
26335;SDS011;14047;50.936;4.654;2022-08-23T01:03:16;19.40;;;8.35;;
26335;SDS011;14047;50.936;4.654;2022-08-23T01:05:49;13.23;;;8.05;;
26335;SDS011;14047;50.936;4.654;2022-08-23T01:08:38;24.95;;;9.38;;
26335;SDS011;14047;50.936;4.654;2022-08-23T01:11:10;14.02;;;8.50;;
26335;SDS011;14047;50.936;4.654;2022-08-23T01:16:52;20.13;;;8.77;;
26335;SDS011;14047;50.936;4.654;2022-08-23T01:19:32;16.48;;;9.82;;
26335;SDS011;14047;50.936;4.654;2022-08-23T01:24:36;12.25;;;8.10;;
26335;SDS011;14047;50.936;4.654;2022-08-23T01:27:03;18.33;;;7.85;;
26335;SDS011;14047;50.936;4.654;2022-08-23T01:29:29;16.73;;;8.35;;
26335;SDS011;14047;50.936;4.654;2022-08-23T01:31:54;9.45;;;6.63;;
26335;SDS011;14047;50.936;4.654;2022-08-23T01:34:24;16.05;;;8.45;;
26335;SDS011;14047;50.936;4.654;2022-08-23T01:36:51;14.68;;;7.80;;
26335;SDS011;14047;50.936;4.654;2022-08-23T01:39:16;25.20;;;8.75;;
26335;SDS011;14047;50.936;4.654;2022-08-23T01:41:42;19.35;;;9.18;;
26335;SDS011;14047;50.936;4.654;2022-08-23T01:44:08;17.67;;;9.55;;
26335;SDS011;14047;50.936;4.654;2022-08-23T01:46:34;19.63;;;9.63;;
26335;SDS011;14047;50.936;4.654;2022-08-23T01:49:01;22.15;;;9.05;;
26335;SDS011;14047;50.936;4.654;2022-08-23T01:51:28;19.08;;;9.80;;
26335;SDS011;14047;50.936;4.654;2022-08-23T01:53:53;25.30;;;10.27;;
26335;SDS011;14047;50.936;4.654;2022-08-23T01:56:19;15.80;;;9.30;;
26335;SDS011;14047;50.936;4.654;2022-08-23T01:58:46;17.60;;;8.52;;
26335;SDS011;14047;50.936;4.654;2022-08-23T02:01:13;21.45;;;8.77;;
26335;SDS011;14047;50.936;4.654;2022-08-23T02:03:39;14.38;;;8.50;;
26335;SDS011;14047;50.936;4.654;2022-08-23T02:06:04;17.33;;;8.80;;
26335;SDS011;14047;50.936;4.654;2022-08-23T02:08:31;17.30;;;9.27;;
26335;SDS011;14047;50.936;4.654;2022-08-23T02:11:16;21.05;;;9.45;;
26335;SDS011;14047;50.936;4.654;2022-08-23T02:13:46;18.23;;;9.05;;
26335;SDS011;14047;50.936;4.654;2022-08-23T02:16:12;21.77;;;10.32;;
26335;SDS011;14047;50.936;4.654;2022-08-23T02:18:49;20.00;;;9.40;;
26335;SDS011;14047;50.936;4.654;2022-08-23T02:21:15;19.88;;;10.77;;
26335;SDS011;14047;50.936;4.654;2022-08-23T02:23:41;20.80;;;10.55;;
26335;SDS011;14047;50.936;4.654;2022-08-23T02:26:07;19.00;;;10.50;;
26335;SDS011;14047;50.936;4.654;2022-08-23T02:28:33;25.33;;;11.13;;
26335;SDS011;14047;50.936;4.654;2022-08-23T02:30:59;28.98;;;11.43;;
26335;SDS011;14047;50.936;4.654;2022-08-23T02:33:24;25.67;;;11.20;;
26335;SDS011;14047;50.936;4.654;2022-08-23T02:35:50;24.23;;;10.38;;
26335;SDS011;14047;50.936;4.654;2022-08-23T02:38:16;23.85;;;10.63;;
26335;SDS011;14047;50.936;4.654;2022-08-23T02:40:42;15.52;;;9.75;;
26335;SDS011;14047;50.936;4.654;2022-08-23T02:43:08;15.70;;;8.70;;
26335;SDS011;14047;50.936;4.654;2022-08-23T02:45:35;19.67;;;10.52;;
26335;SDS011;14047;50.936;4.654;2022-08-23T02:48:02;16.45;;;9.27;;
26335;SDS011;14047;50.936;4.654;2022-08-23T02:50:29;15.23;;;9.57;;
26335;SDS011;14047;50.936;4.654;2022-08-23T02:52:56;24.65;;;10.18;;
26335;SDS011;14047;50.936;4.654;2022-08-23T02:55:22;20.08;;;10.10;;
26335;SDS011;14047;50.936;4.654;2022-08-23T02:57:48;19.55;;;9.68;;
26335;SDS011;14047;50.936;4.654;2022-08-23T03:00:14;20.73;;;10.82;;
26335;SDS011;14047;50.936;4.654;2022-08-23T03:02:41;18.58;;;9.40;;
26335;SDS011;14047;50.936;4.654;2022-08-23T03:05:07;20.58;;;10.25;;
26335;SDS011;14047;50.936;4.654;2022-08-23T03:07:34;19.85;;;10.38;;
26335;SDS011;14047;50.936;4.654;2022-08-23T03:10:00;18.52;;;10.38;;
26335;SDS011;14047;50.936;4.654;2022-08-23T03:12:27;16.95;;;10.82;;
26335;SDS011;14047;50.936;4.654;2022-08-23T03:14:52;18.52;;;9.90;;
26335;SDS011;14047;50.936;4.654;2022-08-23T03:17:18;21.25;;;9.50;;
26335;SDS011;14047;50.936;4.654;2022-08-23T03:19:44;18.92;;;9.25;;
26335;SDS011;14047;50.936;4.654;2022-08-23T03:22:10;18.90;;;9.15;;
26335;SDS011;14047;50.936;4.654;2022-08-23T03:24:35;19.83;;;9.38;;
26335;SDS011;14047;50.936;4.654;2022-08-23T03:27:02;14.75;;;8.55;;
26335;SDS011;14047;50.936;4.654;2022-08-23T03:29:29;19.05;;;10.55;;
26335;SDS011;14047;50.936;4.654;2022-08-23T03:31:55;17.55;;;9.75;;
26335;SDS011;14047;50.936;4.654;2022-08-23T03:34:22;16.92;;;9.35;;
26335;SDS011;14047;50.936;4.654;2022-08-23T03:36:47;18.70;;;9.70;;
26335;SDS011;14047;50.936;4.654;2022-08-23T03:39:13;18.55;;;10.40;;
26335;SDS011;14047;50.936;4.654;2022-08-23T03:41:39;24.05;;;11.80;;
26335;SDS011;14047;50.936;4.654;2022-08-23T03:44:04;19.25;;;10.45;;
26335;SDS011;14047;50.936;4.654;2022-08-23T03:46:30;23.02;;;11.35;;
26335;SDS011;14047;50.936;4.654;2022-08-23T03:48:57;24.92;;;11.73;;
26335;SDS011;14047;50.936;4.654;2022-08-23T03:51:26;26.58;;;12.43;;
26335;SDS011;14047;50.936;4.654;2022-08-23T03:53:54;28.60;;;12.75;;
26335;SDS011;14047;50.936;4.654;2022-08-23T03:56:26;22.10;;;10.93;;
26335;SDS011;14047;50.936;4.654;2022-08-23T03:58:55;17.40;;;11.27;;
26335;SDS011;14047;50.936;4.654;2022-08-23T04:01:24;18.92;;;10.95;;
26335;SDS011;14047;50.936;4.654;2022-08-23T04:03:50;23.95;;;11.90;;
26335;SDS011;14047;50.936;4.654;2022-08-23T04:06:16;25.15;;;11.75;;
26335;SDS011;14047;50.936;4.654;2022-08-23T04:08:43;22.55;;;11.82;;
26335;SDS011;14047;50.936;4.654;2022-08-23T04:11:10;21.40;;;12.50;;
26335;SDS011;14047;50.936;4.654;2022-08-23T04:13:37;18.58;;;10.82;;
26335;SDS011;14047;50.936;4.654;2022-08-23T04:16:04;19.92;;;11.85;;
26335;SDS011;14047;50.936;4.654;2022-08-23T04:18:31;22.08;;;12.55;;
26335;SDS011;14047;50.936;4.654;2022-08-23T04:20:58;25.33;;;12.32;;
26335;SDS011;14047;50.936;4.654;2022-08-23T04:23:26;27.13;;;11.85;;
26335;SDS011;14047;50.936;4.654;2022-08-23T04:25:53;25.00;;;12.40;;
26335;SDS011;14047;50.936;4.654;2022-08-23T04:28:19;25.77;;;12.75;;
26335;SDS011;14047;50.936;4.654;2022-08-23T04:30:46;20.58;;;11.32;;
26335;SDS011;14047;50.936;4.654;2022-08-23T04:33:12;21.38;;;11.32;;
26335;SDS011;14047;50.936;4.654;2022-08-23T04:35:38;26.27;;;13.15;;
26335;SDS011;14047;50.936;4.654;2022-08-23T04:38:05;21.60;;;10.80;;
26335;SDS011;14047;50.936;4.654;2022-08-23T04:40:31;20.27;;;11.82;;
26335;SDS011;14047;50.936;4.654;2022-08-23T04:43:15;28.42;;;11.05;;
26335;SDS011;14047;50.936;4.654;2022-08-23T04:45:41;19.83;;;11.05;;
26335;SDS011;14047;50.936;4.654;2022-08-23T04:48:07;21.83;;;10.50;;
26335;SDS011;14047;50.936;4.654;2022-08-23T04:50:33;18.23;;;10.90;;
26335;SDS011;14047;50.936;4.654;2022-08-23T04:53:00;19.17;;;11.10;;
26335;SDS011;14047;50.936;4.654;2022-08-23T04:55:26;20.38;;;10.38;;
26335;SDS011;14047;50.936;4.654;2022-08-23T04:57:52;19.67;;;9.70;;
26335;SDS011;14047;50.936;4.654;2022-08-23T05:00:19;17.35;;;9.57;;
26335;SDS011;14047;50.936;4.654;2022-08-23T05:02:45;14.88;;;8.95;;
26335;SDS011;14047;50.936;4.654;2022-08-23T05:05:11;16.08;;;8.88;;
26335;SDS011;14047;50.936;4.654;2022-08-23T05:07:37;16.92;;;10.30;;
26335;SDS011;14047;50.936;4.654;2022-08-23T05:10:04;22.15;;;10.02;;
26335;SDS011;14047;50.936;4.654;2022-08-23T05:12:31;15.57;;;9.55;;
26335;SDS011;14047;50.936;4.654;2022-08-23T05:14:57;19.73;;;9.00;;
26335;SDS011;14047;50.936;4.654;2022-08-23T05:17:23;15.85;;;9.20;;
26335;SDS011;14047;50.936;4.654;2022-08-23T05:19:48;14.98;;;9.77;;
26335;SDS011;14047;50.936;4.654;2022-08-23T05:22:14;18.83;;;10.73;;
26335;SDS011;14047;50.936;4.654;2022-08-23T05:24:40;16.38;;;10.35;;
26335;SDS011;14047;50.936;4.654;2022-08-23T05:27:05;16.20;;;9.90;;
26335;SDS011;14047;50.936;4.654;2022-08-23T05:29:31;19.20;;;9.82;;
26335;SDS011;14047;50.936;4.654;2022-08-23T05:31:56;19.25;;;10.52;;
26335;SDS011;14047;50.936;4.654;2022-08-23T05:34:22;17.00;;;9.50;;
26335;SDS011;14047;50.936;4.654;2022-08-23T05:36:49;16.20;;;9.73;;
26335;SDS011;14047;50.936;4.654;2022-08-23T05:39:15;17.38;;;9.10;;
26335;SDS011;14047;50.936;4.654;2022-08-23T05:41:41;16.25;;;9.90;;
26335;SDS011;14047;50.936;4.654;2022-08-23T05:44:07;17.83;;;9.75;;
26335;SDS011;14047;50.936;4.654;2022-08-23T05:46:34;13.75;;;9.57;;
26335;SDS011;14047;50.936;4.654;2022-08-23T05:49:01;21.73;;;9.82;;
26335;SDS011;14047;50.936;4.654;2022-08-23T05:51:28;18.10;;;10.57;;
26335;SDS011;14047;50.936;4.654;2022-08-23T05:53:56;13.50;;;9.10;;
26335;SDS011;14047;50.936;4.654;2022-08-23T05:56:25;18.40;;;9.32;;
26335;SDS011;14047;50.936;4.654;2022-08-23T05:58:52;18.17;;;9.73;;
26335;SDS011;14047;50.936;4.654;2022-08-23T06:01:20;17.83;;;10.23;;
26335;SDS011;14047;50.936;4.654;2022-08-23T06:03:46;16.80;;;10.23;;
26335;SDS011;14047;50.936;4.654;2022-08-23T06:06:13;16.30;;;9.88;;
26335;SDS011;14047;50.936;4.654;2022-08-23T06:08:40;22.90;;;10.10;;
26335;SDS011;14047;50.936;4.654;2022-08-23T06:11:09;14.02;;;9.77;;
26335;SDS011;14047;50.936;4.654;2022-08-23T06:13:39;19.85;;;10.30;;
26335;SDS011;14047;50.936;4.654;2022-08-23T06:16:06;24.08;;;10.07;;
26335;SDS011;14047;50.936;4.654;2022-08-23T06:18:32;15.15;;;9.20;;
26335;SDS011;14047;50.936;4.654;2022-08-23T06:21:08;16.40;;;9.82;;
26335;SDS011;14047;50.936;4.654;2022-08-23T06:23:35;16.90;;;9.45;;
26335;SDS011;14047;50.936;4.654;2022-08-23T06:26:08;21.88;;;10.10;;
26335;SDS011;14047;50.936;4.654;2022-08-23T06:28:39;18.42;;;10.10;;
26335;SDS011;14047;50.936;4.654;2022-08-23T06:31:05;16.85;;;9.75;;
26335;SDS011;14047;50.936;4.654;2022-08-23T06:33:31;19.73;;;10.30;;
26335;SDS011;14047;50.936;4.654;2022-08-23T06:36:02;21.63;;;10.07;;
26335;SDS011;14047;50.936;4.654;2022-08-23T06:38:30;23.67;;;10.88;;
26335;SDS011;14047;50.936;4.654;2022-08-23T06:41:01;25.00;;;10.35;;
26335;SDS011;14047;50.936;4.654;2022-08-23T06:43:28;21.02;;;10.30;;
26335;SDS011;14047;50.936;4.654;2022-08-23T06:46:05;21.90;;;10.30;;
26335;SDS011;14047;50.936;4.654;2022-08-23T06:48:32;19.00;;;9.10;;
26335;SDS011;14047;50.936;4.654;2022-08-23T06:50:58;28.05;;;10.10;;
26335;SDS011;14047;50.936;4.654;2022-08-23T06:53:23;29.15;;;9.55;;
26335;SDS011;14047;50.936;4.654;2022-08-23T06:55:49;19.75;;;9.48;;
26335;SDS011;14047;50.936;4.654;2022-08-23T06:58:15;21.58;;;9.63;;
26335;SDS011;14047;50.936;4.654;2022-08-23T07:00:40;27.52;;;9.02;;
26335;SDS011;14047;50.936;4.654;2022-08-23T07:03:06;17.67;;;9.45;;
26335;SDS011;14047;50.936;4.654;2022-08-23T07:05:32;15.68;;;7.47;;
26335;SDS011;14047;50.936;4.654;2022-08-23T07:07:58;17.77;;;7.10;;
26335;SDS011;14047;50.936;4.654;2022-08-23T07:10:23;16.02;;;6.45;;
26335;SDS011;14047;50.936;4.654;2022-08-23T07:12:49;13.30;;;5.90;;
26335;SDS011;14047;50.936;4.654;2022-08-23T07:15:15;21.23;;;6.28;;
26335;SDS011;14047;50.936;4.654;2022-08-23T07:17:40;14.13;;;5.30;;
26335;SDS011;14047;50.936;4.654;2022-08-23T07:20:06;15.80;;;5.55;;
26335;SDS011;14047;50.936;4.654;2022-08-23T07:22:32;12.30;;;5.25;;
26335;SDS011;14047;50.936;4.654;2022-08-23T07:24:57;14.35;;;5.00;;
26335;SDS011;14047;50.936;4.654;2022-08-23T07:27:23;17.77;;;5.47;;
26335;SDS011;14047;50.936;4.654;2022-08-23T07:29:49;16.50;;;5.80;;
26335;SDS011;14047;50.936;4.654;2022-08-23T07:32:15;13.70;;;4.95;;
26335;SDS011;14047;50.936;4.654;2022-08-23T07:34:40;18.65;;;5.10;;
26335;SDS011;14047;50.936;4.654;2022-08-23T07:37:06;15.48;;;4.85;;
26335;SDS011;14047;50.936;4.654;2022-08-23T07:39:31;8.82;;;3.78;;
26335;SDS011;14047;50.936;4.654;2022-08-23T07:41:58;12.52;;;3.30;;
26335;SDS011;14047;50.936;4.654;2022-08-23T07:44:25;11.85;;;4.03;;
26335;SDS011;14047;50.936;4.654;2022-08-23T07:46:50;10.82;;;3.22;;
26335;SDS011;14047;50.936;4.654;2022-08-23T07:49:16;8.73;;;3.08;;
26335;SDS011;14047;50.936;4.654;2022-08-23T07:51:44;6.30;;;2.95;;
26335;SDS011;14047;50.936;4.654;2022-08-23T07:54:11;4.95;;;2.28;;
26335;SDS011;14047;50.936;4.654;2022-08-23T07:56:37;9.45;;;3.35;;
26335;SDS011;14047;50.936;4.654;2022-08-23T07:59:04;9.15;;;2.78;;
26335;SDS011;14047;50.936;4.654;2022-08-23T08:01:31;11.02;;;2.70;;
26335;SDS011;14047;50.936;4.654;2022-08-23T08:03:58;6.30;;;2.15;;
26335;SDS011;14047;50.936;4.654;2022-08-23T08:06:26;4.45;;;1.90;;
26335;SDS011;14047;50.936;4.654;2022-08-23T08:08:58;5.30;;;1.70;;
26335;SDS011;14047;50.936;4.654;2022-08-23T08:11:24;4.03;;;1.42;;
26335;SDS011;14047;50.936;4.654;2022-08-23T08:13:52;9.23;;;1.65;;
26335;SDS011;14047;50.936;4.654;2022-08-23T08:16:29;8.10;;;1.63;;
26335;SDS011;14047;50.936;4.654;2022-08-23T08:18:58;5.05;;;1.52;;
26335;SDS011;14047;50.936;4.654;2022-08-23T08:21:26;7.05;;;1.73;;
26335;SDS011;14047;50.936;4.654;2022-08-23T08:23:52;7.25;;;1.40;;
26335;SDS011;14047;50.936;4.654;2022-08-23T08:26:18;5.57;;;1.42;;
26335;SDS011;14047;50.936;4.654;2022-08-23T08:28:44;4.18;;;1.20;;
26335;SDS011;14047;50.936;4.654;2022-08-23T08:31:11;7.65;;;1.30;;
26335;SDS011;14047;50.936;4.654;2022-08-23T08:33:37;3.30;;;1.23;;
26335;SDS011;14047;50.936;4.654;2022-08-23T08:36:03;6.13;;;1.40;;
26335;SDS011;14047;50.936;4.654;2022-08-23T08:38:30;4.80;;;1.23;;
26335;SDS011;14047;50.936;4.654;2022-08-23T08:41:09;4.03;;;1.20;;
26335;SDS011;14047;50.936;4.654;2022-08-23T08:46:44;6.35;;;1.88;;
26335;SDS011;14047;50.936;4.654;2022-08-23T08:49:20;5.03;;;1.75;;
26335;SDS011;14047;50.936;4.654;2022-08-23T08:52:16;7.13;;;1.50;;
26335;SDS011;14047;50.936;4.654;2022-08-23T08:54:48;4.82;;;1.25;;
26335;SDS011;14047;50.936;4.654;2022-08-23T08:57:17;5.93;;;1.33;;
26335;SDS011;14047;50.936;4.654;2022-08-23T08:59:59;4.00;;;1.58;;
26335;SDS011;14047;50.936;4.654;2022-08-23T09:02:32;5.07;;;1.20;;
26335;SDS011;14047;50.936;4.654;2022-08-23T09:05:00;4.85;;;1.60;;
26335;SDS011;14047;50.936;4.654;2022-08-23T09:10:07;3.30;;;1.42;;
26335;SDS011;14047;50.936;4.654;2022-08-23T09:13:22;8.02;;;1.60;;
26335;SDS011;14047;50.936;4.654;2022-08-23T09:18:54;5.15;;;1.20;;
26335;SDS011;14047;50.936;4.654;2022-08-23T09:21:20;3.22;;;1.20;;
26335;SDS011;14047;50.936;4.654;2022-08-23T09:23:47;4.30;;;1.30;;
26335;SDS011;14047;50.936;4.654;2022-08-23T09:26:24;7.93;;;1.17;;
26335;SDS011;14047;50.936;4.654;2022-08-23T09:31:52;3.50;;;1.00;;
26335;SDS011;14047;50.936;4.654;2022-08-23T09:34:36;3.97;;;1.10;;
26335;SDS011;14047;50.936;4.654;2022-08-23T09:39:37;6.00;;;1.23;;
26335;SDS011;14047;50.936;4.654;2022-08-23T09:44:56;3.05;;;1.40;;
26335;SDS011;14047;50.936;4.654;2022-08-23T09:47:29;6.28;;;1.35;;
26335;SDS011;14047;50.936;4.654;2022-08-23T09:49:58;3.13;;;1.25;;
26335;SDS011;14047;50.936;4.654;2022-08-23T09:52:34;4.30;;;1.38;;
26335;SDS011;14047;50.936;4.654;2022-08-23T09:55:09;8.63;;;1.35;;
26335;SDS011;14047;50.936;4.654;2022-08-23T09:57:51;2.97;;;1.20;;
26335;SDS011;14047;50.936;4.654;2022-08-23T10:00:31;4.88;;;1.30;;
26335;SDS011;14047;50.936;4.654;2022-08-23T10:03:21;2.28;;;1.02;;
26335;SDS011;14047;50.936;4.654;2022-08-23T10:05:53;3.60;;;1.17;;
26335;SDS011;14047;50.936;4.654;2022-08-23T10:08:28;9.80;;;1.63;;
26335;SDS011;14047;50.936;4.654;2022-08-23T10:11:19;1.25;;;0.88;;
26335;SDS011;14047;50.936;4.654;2022-08-23T10:13:42;2.25;;;1.00;;
26335;SDS011;14047;50.936;4.654;2022-08-23T10:21:36;7.53;;;1.20;;
26335;SDS011;14047;50.936;4.654;2022-08-23T10:27:14;2.35;;;0.90;;
26335;SDS011;14047;50.936;4.654;2022-08-23T10:30:11;1.85;;;1.02;;
26335;SDS011;14047;50.936;4.654;2022-08-23T10:32:52;3.28;;;0.98;;
26335;SDS011;14047;50.936;4.654;2022-08-23T10:40:28;2.15;;;0.95;;
26335;SDS011;14047;50.936;4.654;2022-08-23T10:43:13;5.47;;;1.50;;
26335;SDS011;14047;50.936;4.654;2022-08-23T10:45:49;4.20;;;1.52;;
26335;SDS011;14047;50.936;4.654;2022-08-23T10:50:56;3.55;;;1.20;;
26335;SDS011;14047;50.936;4.654;2022-08-23T10:53:31;2.72;;;1.20;;
26335;SDS011;14047;50.936;4.654;2022-08-23T10:56:03;2.75;;;1.20;;
26335;SDS011;14047;50.936;4.654;2022-08-23T10:58:36;4.78;;;0.80;;
26335;SDS011;14047;50.936;4.654;2022-08-23T11:01:13;3.03;;;0.80;;
26335;SDS011;14047;50.936;4.654;2022-08-23T11:06:44;4.00;;;0.57;;
26335;SDS011;14047;50.936;4.654;2022-08-23T11:11:46;1.52;;;0.60;;
26335;SDS011;14047;50.936;4.654;2022-08-23T11:17:03;1.23;;;0.60;;
26335;SDS011;14047;50.936;4.654;2022-08-23T11:19:48;4.85;;;0.57;;
26335;SDS011;14047;50.936;4.654;2022-08-23T11:24:50;4.85;;;0.52;;
26335;SDS011;14047;50.936;4.654;2022-08-23T11:29:54;0.73;;;0.50;;
26335;SDS011;14047;50.936;4.654;2022-08-23T11:32:21;3.63;;;0.60;;
26335;SDS011;14047;50.936;4.654;2022-08-23T11:35:08;5.20;;;0.73;;
26335;SDS011;14047;50.936;4.654;2022-08-23T11:37:48;4.97;;;0.68;;
26335;SDS011;14047;50.936;4.654;2022-08-23T11:40:15;2.60;;;0.65;;
26335;SDS011;14047;50.936;4.654;2022-08-23T11:43:07;2.22;;;0.50;;
26335;SDS011;14047;50.936;4.654;2022-08-23T12:01:33;1.10;;;0.55;;
26335;SDS011;14047;50.936;4.654;2022-08-23T12:04:35;2.47;;;0.40;;
26335;SDS011;14047;50.936;4.654;2022-08-23T12:07:06;2.28;;;0.50;;
26335;SDS011;14047;50.936;4.654;2022-08-23T12:12:24;2.85;;;0.50;;
26335;SDS011;14047;50.936;4.654;2022-08-23T12:14:55;5.25;;;0.60;;
26335;SDS011;14047;50.936;4.654;2022-08-23T12:19:51;6.35;;;0.60;;
26335;SDS011;14047;50.936;4.654;2022-08-23T12:25:21;4.68;;;0.90;;
26335;SDS011;14047;50.936;4.654;2022-08-23T12:27:53;0.90;;;0.50;;
26335;SDS011;14047;50.936;4.654;2022-08-23T12:30:28;2.25;;;0.50;;
26335;SDS011;14047;50.936;4.654;2022-08-23T12:33:12;2.42;;;0.70;;
26335;SDS011;14047;50.936;4.654;2022-08-23T12:36:08;5.10;;;0.65;;
26335;SDS011;14047;50.936;4.654;2022-08-23T12:38:51;3.70;;;0.75;;
26335;SDS011;14047;50.936;4.654;2022-08-23T12:41:24;1.60;;;0.40;;
26335;SDS011;14047;50.936;4.654;2022-08-23T12:44:03;3.58;;;0.70;;
26335;SDS011;14047;50.936;4.654;2022-08-23T12:46:35;0.77;;;0.40;;
26335;SDS011;14047;50.936;4.654;2022-08-23T12:49:07;4.63;;;0.55;;
26335;SDS011;14047;50.936;4.654;2022-08-23T12:51:38;8.07;;;0.80;;
26335;SDS011;14047;50.936;4.654;2022-08-23T12:54:13;7.25;;;0.45;;
26335;SDS011;14047;50.936;4.654;2022-08-23T12:56:43;3.08;;;0.22;;
26335;SDS011;14047;50.936;4.654;2022-08-23T12:59:27;0.70;;;0.30;;
26335;SDS011;14047;50.936;4.654;2022-08-23T13:01:58;0.63;;;0.30;;
26335;SDS011;14047;50.936;4.654;2022-08-23T13:04:26;1.80;;;0.50;;
26335;SDS011;14047;50.936;4.654;2022-08-23T13:06:57;1.08;;;0.45;;
26335;SDS011;14047;50.936;4.654;2022-08-23T13:09:35;0.98;;;0.40;;
26335;SDS011;14047;50.936;4.654;2022-08-23T13:12:05;3.60;;;0.65;;
26335;SDS011;14047;50.936;4.654;2022-08-23T13:14:42;3.92;;;0.45;;
26335;SDS011;14047;50.936;4.654;2022-08-23T13:17:12;1.17;;;0.40;;
26335;SDS011;14047;50.936;4.654;2022-08-23T13:19:50;0.70;;;0.30;;
26335;SDS011;14047;50.936;4.654;2022-08-23T13:22:26;2.50;;;0.30;;
26335;SDS011;14047;50.936;4.654;2022-08-23T13:27:32;1.92;;;0.60;;
26335;SDS011;14047;50.936;4.654;2022-08-23T13:32:47;2.58;;;0.45;;
26335;SDS011;14047;50.936;4.654;2022-08-23T13:37:50;2.05;;;0.60;;
26335;SDS011;14047;50.936;4.654;2022-08-23T13:40:28;0.98;;;0.40;;
26335;SDS011;14047;50.936;4.654;2022-08-23T13:43:00;4.30;;;0.70;;
26335;SDS011;14047;50.936;4.654;2022-08-23T13:45:33;1.58;;;0.50;;
26335;SDS011;14047;50.936;4.654;2022-08-23T13:50:34;3.80;;;0.65;;
26335;SDS011;14047;50.936;4.654;2022-08-23T13:53:02;1.38;;;0.38;;
26335;SDS011;14047;50.936;4.654;2022-08-23T13:55:29;0.82;;;0.35;;
26335;SDS011;14047;50.936;4.654;2022-08-23T13:57:56;1.10;;;0.40;;
26335;SDS011;14047;50.936;4.654;2022-08-23T14:00:22;4.03;;;0.60;;
26335;SDS011;14047;50.936;4.654;2022-08-23T14:02:49;5.72;;;0.40;;
26335;SDS011;14047;50.936;4.654;2022-08-23T14:05:17;4.10;;;0.60;;
26335;SDS011;14047;50.936;4.654;2022-08-23T14:07:45;4.82;;;0.57;;
26335;SDS011;14047;50.936;4.654;2022-08-23T14:10:13;1.77;;;0.50;;
26335;SDS011;14047;50.936;4.654;2022-08-23T14:12:39;4.32;;;0.52;;
26335;SDS011;14047;50.936;4.654;2022-08-23T14:15:09;4.25;;;0.50;;
26335;SDS011;14047;50.936;4.654;2022-08-23T14:17:40;2.42;;;0.50;;
26335;SDS011;14047;50.936;4.654;2022-08-23T14:20:10;2.13;;;0.60;;
26335;SDS011;14047;50.936;4.654;2022-08-23T14:22:36;4.38;;;0.60;;
26335;SDS011;14047;50.936;4.654;2022-08-23T14:25:03;2.88;;;0.80;;
26335;SDS011;14047;50.936;4.654;2022-08-23T14:27:30;3.70;;;0.43;;
26335;SDS011;14047;50.936;4.654;2022-08-23T14:29:56;0.95;;;0.52;;
26335;SDS011;14047;50.936;4.654;2022-08-23T14:32:22;3.03;;;0.50;;
26335;SDS011;14047;50.936;4.654;2022-08-23T14:34:48;4.35;;;0.70;;
26335;SDS011;14047;50.936;4.654;2022-08-23T14:37:14;0.82;;;0.50;;
26335;SDS011;14047;50.936;4.654;2022-08-23T14:39:39;0.90;;;0.32;;
26335;SDS011;14047;50.936;4.654;2022-08-23T14:42:06;1.95;;;0.60;;
26335;SDS011;14047;50.936;4.654;2022-08-23T14:44:32;1.90;;;0.75;;
26335;SDS011;14047;50.936;4.654;2022-08-23T14:46:57;1.00;;;0.43;;
26335;SDS011;14047;50.936;4.654;2022-08-23T14:49:23;4.70;;;0.70;;
26335;SDS011;14047;50.936;4.654;2022-08-23T14:51:49;2.13;;;0.50;;
26335;SDS011;14047;50.936;4.654;2022-08-23T14:54:18;2.80;;;0.50;;
26335;SDS011;14047;50.936;4.654;2022-08-23T14:56:47;5.03;;;0.70;;
26335;SDS011;14047;50.936;4.654;2022-08-23T14:59:13;1.17;;;0.40;;
26335;SDS011;14047;50.936;4.654;2022-08-23T15:01:39;0.47;;;0.40;;
26335;SDS011;14047;50.936;4.654;2022-08-23T15:04:05;4.32;;;0.60;;
26335;SDS011;14047;50.936;4.654;2022-08-23T15:06:31;5.53;;;0.50;;
26335;SDS011;14047;50.936;4.654;2022-08-23T15:08:57;0.77;;;0.40;;
26335;SDS011;14047;50.936;4.654;2022-08-23T15:11:23;3.28;;;0.45;;
26335;SDS011;14047;50.936;4.654;2022-08-23T15:13:49;3.92;;;0.52;;
26335;SDS011;14047;50.936;4.654;2022-08-23T15:16:15;4.13;;;0.75;;
26335;SDS011;14047;50.936;4.654;2022-08-23T15:18:46;1.42;;;0.70;;
26335;SDS011;14047;50.936;4.654;2022-08-23T15:21:14;1.13;;;0.70;;
26335;SDS011;14047;50.936;4.654;2022-08-23T15:23:41;2.75;;;0.60;;
26335;SDS011;14047;50.936;4.654;2022-08-23T15:26:08;2.97;;;0.60;;
26335;SDS011;14047;50.936;4.654;2022-08-23T15:28:36;1.92;;;0.80;;
26335;SDS011;14047;50.936;4.654;2022-08-23T15:31:02;1.15;;;0.50;;
26335;SDS011;14047;50.936;4.654;2022-08-23T15:33:28;2.13;;;0.50;;
26335;SDS011;14047;50.936;4.654;2022-08-23T15:35:56;4.80;;;1.30;;
26335;SDS011;14047;50.936;4.654;2022-08-23T15:38:25;1.90;;;0.65;;
26335;SDS011;14047;50.936;4.654;2022-08-23T15:40:52;0.95;;;0.60;;
26335;SDS011;14047;50.936;4.654;2022-08-23T15:43:19;0.85;;;0.60;;
26335;SDS011;14047;50.936;4.654;2022-08-23T15:45:46;3.22;;;0.68;;
26335;SDS011;14047;50.936;4.654;2022-08-23T15:48:26;3.67;;;0.80;;
26335;SDS011;14047;50.936;4.654;2022-08-23T15:50:56;0.77;;;0.60;;
26335;SDS011;14047;50.936;4.654;2022-08-23T15:53:22;3.40;;;0.68;;
26335;SDS011;14047;50.936;4.654;2022-08-23T15:55:48;1.33;;;0.50;;
26335;SDS011;14047;50.936;4.654;2022-08-23T15:58:17;4.18;;;0.90;;
26335;SDS011;14047;50.936;4.654;2022-08-23T16:00:48;1.00;;;0.70;;
26335;SDS011;14047;50.936;4.654;2022-08-23T16:03:15;2.75;;;0.70;;
26335;SDS011;14047;50.936;4.654;2022-08-23T16:05:42;0.75;;;0.60;;
26335;SDS011;14047;50.936;4.654;2022-08-23T16:08:17;1.50;;;0.50;;
26335;SDS011;14047;50.936;4.654;2022-08-23T16:10:46;3.20;;;0.70;;
26335;SDS011;14047;50.936;4.654;2022-08-23T16:13:12;1.08;;;0.52;;
26335;SDS011;14047;50.936;4.654;2022-08-23T16:15:38;1.30;;;0.80;;
26335;SDS011;14047;50.936;4.654;2022-08-23T16:18:03;1.42;;;0.57;;
26335;SDS011;14047;50.936;4.654;2022-08-23T16:20:30;6.32;;;0.73;;